Changting, China
Current Conditions -  °F | °C
As of 4:00 PM on Monday 24 Nov 2014 (Local Time) from ZSAM Reporting Station
Clear Clear  
Wind Chill: 77°   Ceiling: Unl
Heat Index: 79°   Visibility: 6mi
Dew Point: 66°   Wind: 9mph
Humidity: 69%   Direction: 120°ESE
Pressure: 29.91"   Gusts: NA
Location:  25.85°N, 116.37°E
Report Text: ZSAM 240800Z 12004MPS 080V150 CAVOK 25/19 Q1013 NOSIG
Loading
Personal Weather Stations






























Interactive Weather Map New forecast layout! Learn more

10-Day Weather Forecast

Advertisements
Track Severe Weather on mobile